createdAt,value
2018-02-22T00:01:01.324Z,102491.88
2018-02-22T00:02:05.533Z,102492.10
2018-02-22T00:03:09.726Z,102491.88
2018-02-22T00:04:14.218Z,102489.49
2018-02-22T00:05:18.571Z,102490.48
2018-02-22T00:06:22.892Z,102491.88
2018-02-22T00:07:27.156Z,102495.77
2018-02-22T00:08:31.391Z,102486.93
2018-02-22T00:09:36.353Z,102488.38
2018-02-22T00:10:40.558Z,102486.19
2018-02-22T00:11:45.183Z,102477.63
2018-02-22T00:12:49.647Z,102480.08
2018-02-22T00:13:55.092Z,102481.95
2018-02-22T00:14:59.313Z,102480.98
2018-02-22T00:16:04.311Z,102480.03
2018-02-22T00:17:08.492Z,102478.73
2018-02-22T00:18:12.774Z,102482.30
2018-02-22T00:19:17.516Z,102482.22
2018-02-22T00:20:21.819Z,102483.87
2018-02-22T00:21:26.095Z,102478.98
2018-02-22T00:22:30.271Z,102484.36
2018-02-22T00:23:34.447Z,102478.53
2018-02-22T00:24:39.406Z,102477.83
2018-02-22T00:25:43.916Z,102473.13
2018-02-22T00:26:48.703Z,102472.38
2018-02-22T00:27:54.175Z,102472.38
2018-02-22T00:28:58.366Z,102479.05
2018-02-22T00:30:02.547Z,102473.94
2018-02-22T00:31:06.767Z,102467.73
2018-02-22T00:32:10.997Z,102474.47
2018-02-22T00:33:15.821Z,102474.33
2018-02-22T00:34:20.180Z,102471.97
2018-02-22T00:35:24.484Z,102472.58
2018-02-22T00:36:28.698Z,102472.66
2018-02-22T00:37:32.948Z,102470.10
2018-02-22T00:38:38.653Z,102473.62
2018-02-22T00:39:43.175Z,102474.98
2018-02-22T00:40:48.301Z,102474.75
2018-02-22T00:41:53.957Z,102472.73
2018-02-22T00:42:58.208Z,102464.47
2018-02-22T00:44:03.195Z,102466.88
2018-02-22T00:45:07.413Z,102469.77
2018-02-22T00:46:12.038Z,102468.66
2018-02-22T00:47:17.123Z,102472.62
2018-02-22T00:48:21.456Z,102468.27
2018-02-22T00:49:25.783Z,102471.50
2018-02-22T00:50:29.981Z,102468.98
2018-02-22T00:51:34.164Z,102463.21
2018-02-22T00:52:39.105Z,102464.88
2018-02-22T00:53:43.484Z,102468.73
2018-02-22T00:54:47.873Z,102466.48
2018-02-22T00:55:52.133Z,102462.61
2018-02-22T00:56:57.154Z,102463.13
2018-02-22T00:58:02.124Z,102463.83
2018-02-22T00:59:06.337Z,102459.27
2018-02-22T01:00:10.541Z,102460.31
2018-02-22T01:01:16.243Z,102460.50
2018-02-22T01:02:21.280Z,102460.05
2018-02-22T01:03:25.525Z,102459.11
2018-02-22T01:04:29.716Z,102462.14
2018-02-22T01:05:33.916Z,102459.99
2018-02-22T01:06:38.889Z,102460.62
2018-02-22T01:07:43.284Z,102464.05
2018-02-22T01:08:47.627Z,102457.81
2018-02-22T01:09:51.867Z,102457.44
2018-02-22T01:10:56.854Z,102460.97
2018-02-22T01:12:01.055Z,102457.06
2018-02-22T01:13:05.321Z,102458.92
2018-02-22T01:14:09.523Z,102459.11
2018-02-22T01:15:13.883Z,102452.84
2018-02-22T01:16:18.220Z,102457.74
2018-02-22T01:17:22.791Z,102460.22
2018-02-22T01:18:27.813Z,102454.73
2018-02-22T01:19:32.013Z,102461.38
2018-02-22T01:20:36.214Z,102456.00
2018-02-22T01:21:40.395Z,102448.33
2018-02-22T01:22:44.738Z,102454.73
2018-02-22T01:23:49.772Z,102454.33
2018-02-22T01:24:54.090Z,102449.92
2018-02-22T01:25:58.300Z,102454.52
2018-02-22T01:27:02.515Z,102449.08
2018-02-22T01:28:06.706Z,102453.48
2018-02-22T01:29:11.042Z,102455.19
2018-02-22T01:30:15.436Z,102450.78
2018-02-22T01:31:20.083Z,102448.83
2018-02-22T01:32:25.084Z,102449.16
2018-02-22T01:33:29.294Z,102450.09
2018-02-22T01:34:33.502Z,102447.16
2018-02-22T01:35:37.775Z,102453.09
2018-02-22T01:36:42.063Z,102455.27
2018-02-22T01:37:46.368Z,102456.97
2018-02-22T01:38:51.382Z,102456.72
2018-02-22T01:39:55.586Z,102465.46
2018-02-22T01:40:59.828Z,102458.23
2018-02-22T01:42:04.819Z,102463.95
2018-02-22T01:43:09.012Z,102459.50
2018-02-22T01:44:13.800Z,102454.83
2018-02-22T01:45:18.031Z,102455.64
2018-02-22T01:46:22.297Z,102453.64
2018-02-22T01:47:26.578Z,102467.77
2018-02-22T01:48:30.774Z,102462.35
2018-02-22T01:49:34.955Z,102460.09
2018-02-22T01:50:39.942Z,102460.46
2018-02-22T01:51:44.261Z,102457.69
2018-02-22T01:52:48.500Z,102459.69
2018-02-22T01:53:53.500Z,102450.23
2018-02-22T01:54:57.697Z,102455.50
2018-02-22T01:56:01.889Z,102455.12
2018-02-22T01:57:06.101Z,102459.76
2018-02-22T01:58:10.312Z,102457.13
2018-02-22T01:59:14.907Z,102451.72
2018-02-22T02:00:19.135Z,102458.28
2018-02-22T02:01:23.404Z,102463.34
2018-02-22T02:02:27.727Z,102453.09
2018-02-22T02:03:31.919Z,102453.56
2018-02-22T02:04:37.624Z,102460.13
2018-02-22T02:05:42.328Z,102453.13
2018-02-22T02:06:46.713Z,102450.28
2018-02-22T02:07:51.789Z,102455.42
2018-02-22T02:08:56.016Z,102452.50
2018-02-22T02:10:00.232Z,102449.57
2018-02-22T02:11:04.432Z,102450.87
2018-02-22T02:12:08.620Z,102447.13
2018-02-22T02:13:13.145Z,102451.02
2018-02-22T02:14:18.074Z,102448.39
2018-02-22T02:15:22.395Z,102447.46
2018-02-22T02:16:26.638Z,102444.13
2018-02-22T02:17:30.846Z,102444.34
2018-02-22T02:18:35.123Z,102444.80
2018-02-22T02:19:39.327Z,102447.27
2018-02-22T02:20:43.778Z,102451.16
2018-02-22T02:21:48.414Z,102452.94
2018-02-22T02:22:52.684Z,102452.38
2018-02-22T02:23:56.957Z,102453.64
2018-02-22T02:25:01.932Z,102448.82
2018-02-22T02:26:06.123Z,102452.16
2018-02-22T02:27:10.325Z,102452.20
2018-02-22T02:29:24.241Z,102449.97
2018-02-22T02:30:28.460Z,102454.49
2018-02-22T02:31:32.657Z,102451.48
2018-02-22T02:32:37.627Z,102444.59
2018-02-22T02:33:42.266Z,102447.48
2018-02-22T02:34:46.733Z,102446.71
2018-02-22T02:35:51.910Z,102445.05
2018-02-22T02:36:56.129Z,102444.19
2018-02-22T02:38:00.329Z,102443.86
2018-02-22T02:39:04.552Z,102438.71
2018-02-22T02:40:08.745Z,102448.38
2018-02-22T02:41:13.549Z,102444.89
2018-02-22T02:42:18.930Z,102442.34
2018-02-22T02:43:23.411Z,102444.67
2018-02-22T02:44:27.626Z,102441.71
2018-02-22T02:45:31.820Z,102445.96
2018-02-22T02:46:36.802Z,102446.30
2018-02-22T02:47:41.003Z,102440.23
2018-02-22T02:48:45.817Z,102445.36
2018-02-22T02:49:50.122Z,102442.63
2018-02-22T02:50:54.441Z,102445.96
2018-02-22T02:51:58.632Z,102442.15
2018-02-22T02:53:03.585Z,102440.25
2018-02-22T02:54:07.839Z,102441.03
2018-02-22T02:55:12.781Z,102442.07
2018-02-22T02:56:17.371Z,102440.41
2018-02-22T02:57:22.491Z,102441.89
2018-02-22T02:58:26.708Z,102437.81
2018-02-22T02:59:30.926Z,102439.59
2018-02-22T03:00:35.156Z,102437.77
2018-02-22T03:01:39.351Z,102441.33
2018-02-22T03:02:44.044Z,102437.44
2018-02-22T03:03:49.023Z,102437.27
2018-02-22T03:04:53.350Z,102438.70
2018-02-22T03:05:57.616Z,102439.19
2018-02-22T03:07:01.809Z,102437.19
2018-02-22T03:08:06.000Z,102441.33
2018-02-22T03:09:10.211Z,102441.88
2018-02-22T03:10:15.460Z,102439.95
2018-02-22T03:11:19.908Z,102437.22
2018-02-22T03:12:26.428Z,102439.33
2018-02-22T03:13:30.647Z,102439.21
2018-02-22T03:14:34.861Z,102443.14
2018-02-22T03:15:39.048Z,102441.06
2018-02-22T03:16:44.745Z,102437.39
2018-02-22T03:17:49.178Z,102433.58
2018-02-22T03:18:54.240Z,102433.23
2018-02-22T03:19:59.190Z,102431.88
2018-02-22T03:21:03.376Z,102432.24
2018-02-22T03:22:07.585Z,102425.95
2018-02-22T03:23:13.873Z,102431.62
2018-02-22T03:24:18.378Z,102431.81
2018-02-22T03:25:22.711Z,102429.30
2018-02-22T03:26:26.943Z,102431.47
2018-02-22T03:27:31.132Z,102433.66
2018-02-22T03:28:35.321Z,102431.66
2018-02-22T03:29:39.513Z,102431.73
2018-02-22T03:30:46.167Z,102431.77
2018-02-22T03:31:50.716Z,102434.73
2018-02-22T03:32:55.035Z,102428.22
2018-02-22T03:33:59.222Z,102429.95
2018-02-22T03:35:04.222Z,102436.80
2018-02-22T03:36:08.422Z,102430.33
2018-02-22T03:37:13.153Z,102432.73
2018-02-22T03:38:18.634Z,102432.36
2018-02-22T03:39:23.098Z,102432.80
2018-02-22T03:40:27.352Z,102432.36
2018-02-22T03:41:32.311Z,102433.00
2018-02-22T03:42:36.516Z,102434.85
2018-02-22T03:43:40.727Z,102437.39
2018-02-22T03:44:46.208Z,102437.47
2018-02-22T03:45:51.423Z,102436.14
2018-02-22T03:46:55.654Z,102433.48
2018-02-22T03:47:59.848Z,102437.10
2018-02-22T03:49:04.040Z,102432.14
2018-02-22T03:50:08.256Z,102429.55
2018-02-22T03:51:13.664Z,102432.73
2018-02-22T03:52:18.644Z,102428.48
2018-02-22T03:53:23.192Z,102428.63
2018-02-22T03:54:28.207Z,102428.97
2018-02-22T03:55:32.379Z,102430.67
2018-02-22T03:56:36.616Z,102431.56
2018-02-22T03:57:40.804Z,102436.15
2018-02-22T03:58:46.509Z,102434.00
2018-02-22T03:59:50.902Z,102434.97
2018-02-22T04:00:55.906Z,102430.94
2018-02-22T04:02:00.136Z,102430.37
2018-02-22T04:03:04.324Z,102429.97
2018-02-22T04:04:08.511Z,102432.04
2018-02-22T04:05:13.983Z,102435.86
2018-02-22T04:06:18.466Z,102428.45
2018-02-22T04:07:22.751Z,102430.22
2018-02-22T04:08:26.935Z,102435.14
2018-02-22T04:09:31.122Z,102434.38
2018-02-22T04:10:35.307Z,102428.63
2018-02-22T04:11:39.495Z,102432.45
2018-02-22T04:12:44.402Z,102430.89
2018-02-22T04:13:48.869Z,102435.14
2018-02-22T04:14:53.160Z,102430.66
2018-02-22T04:15:57.369Z,102438.66
2018-02-22T04:17:01.559Z,102435.52
2018-02-22T04:18:06.012Z,102430.11
2018-02-22T04:19:10.221Z,102437.03
2018-02-22T04:20:14.748Z,102434.92
2018-02-22T04:21:19.180Z,102437.58
2018-02-22T04:22:23.743Z,102433.44
2018-02-22T04:23:28.712Z,102437.69
2018-02-22T04:24:32.900Z,102435.73
2018-02-22T04:25:37.103Z,102437.47
2018-02-22T04:26:42.409Z,102440.37
2018-02-22T04:27:47.304Z,102434.81
2018-02-22T04:28:51.532Z,102444.32
2018-02-22T04:29:55.734Z,102434.55
2018-02-22T04:30:59.924Z,102446.72
2018-02-22T04:32:04.137Z,102443.31
2018-02-22T04:33:08.322Z,102440.61
2018-02-22T04:34:13.537Z,102441.95
2018-02-22T04:35:18.520Z,102444.87
2018-02-22T04:36:22.757Z,102443.49
2018-02-22T04:37:26.954Z,102444.27
2018-02-22T04:38:31.135Z,102446.30
2018-02-22T04:39:35.353Z,102446.70
2018-02-22T04:40:39.551Z,102446.03
2018-02-22T04:41:43.812Z,102442.17
2018-02-22T04:42:48.025Z,102447.50
2018-02-22T04:43:52.228Z,102448.30
2018-02-22T04:44:56.451Z,102442.93
2018-02-22T04:46:00.648Z,102448.48
2018-02-22T04:47:04.896Z,102447.67
2018-02-22T04:48:09.107Z,102447.71
2018-02-22T04:49:14.076Z,102448.00
2018-02-22T04:50:18.284Z,102446.67
2018-02-22T04:51:22.498Z,102449.42
2018-02-22T04:52:26.747Z,102450.56
2018-02-22T04:53:30.931Z,102450.23
2018-02-22T04:54:35.129Z,102448.73
2018-02-22T04:55:39.311Z,102447.81
2018-02-22T04:56:43.667Z,102449.22
2018-02-22T04:57:47.956Z,102448.00
2018-02-22T04:58:53.074Z,102449.63
2018-02-22T04:59:58.957Z,102450.08
2018-02-22T05:01:03.198Z,102449.78
2018-02-22T05:02:07.395Z,102447.61
2018-02-22T05:03:11.607Z,102451.71
2018-02-22T05:04:15.810Z,102444.28
2018-02-22T05:05:20.009Z,102450.98
2018-02-22T05:06:24.256Z,102452.56
2018-02-22T05:07:28.583Z,102451.50
2018-02-22T05:08:33.531Z,102451.00
2018-02-22T05:09:37.728Z,102451.47
2018-02-22T05:10:42.705Z,102459.49
2018-02-22T05:11:46.964Z,102453.53
2018-02-22T05:12:51.962Z,102454.05
2018-02-22T05:13:56.177Z,102450.61
2018-02-22T05:15:00.368Z,102449.76
2018-02-22T05:16:04.551Z,102452.85
2018-02-22T05:17:08.771Z,102451.30
2018-02-22T05:18:13.173Z,102441.55
2018-02-22T05:19:18.780Z,102445.21
2018-02-22T05:20:24.400Z,102448.75
2018-02-22T05:21:28.591Z,102445.83
2018-02-22T05:22:32.785Z,102446.61
2018-02-22T05:23:37.298Z,102446.77
2018-02-22T05:24:42.249Z,102444.70
2018-02-22T05:25:47.593Z,102438.97
2018-02-22T05:26:52.338Z,102444.38
2018-02-22T05:27:57.319Z,102441.69
2018-02-22T05:29:01.507Z,102440.84
2018-02-22T05:30:06.506Z,102442.80
2018-02-22T05:31:10.696Z,102442.15
2018-02-22T05:32:15.311Z,102451.20
2018-02-22T05:33:19.760Z,102443.82
2018-02-22T05:34:24.048Z,102444.09
2018-02-22T05:35:28.242Z,102444.83
2018-02-22T05:36:32.427Z,102450.02
2018-02-22T05:37:37.380Z,102444.80
2018-02-22T05:38:42.384Z,102450.19
2018-02-22T05:39:48.358Z,102451.36
2018-02-22T05:40:52.656Z,102446.09
2018-02-22T05:41:56.864Z,102445.03
2018-02-22T05:43:01.046Z,102447.15
2018-02-22T05:44:05.299Z,102451.13
2018-02-22T05:45:09.497Z,102442.97
2018-02-22T05:46:13.893Z,102452.09
2018-02-22T05:47:18.322Z,102451.00
2018-02-22T05:48:22.873Z,102449.50
2018-02-22T05:49:27.191Z,102452.05
2018-02-22T05:50:31.401Z,102452.91
2018-02-22T05:51:35.588Z,102454.33
2018-02-22T05:52:39.778Z,102455.55
2018-02-22T05:53:45.203Z,102453.84
2018-02-22T05:54:49.701Z,102455.87
2018-02-22T05:55:54.026Z,102451.45
2018-02-22T05:56:58.250Z,102459.16
2018-02-22T05:58:02.435Z,102454.56
2018-02-22T05:59:06.621Z,102449.22
2018-02-22T06:00:10.877Z,102454.53
2018-02-22T06:01:15.270Z,102454.20
2018-02-22T06:02:19.710Z,102457.20
2018-02-22T06:03:24.749Z,102452.47
2018-02-22T06:04:29.708Z,102459.08
2018-02-22T06:05:33.926Z,102455.88
2018-02-22T06:06:38.117Z,102457.13
2018-02-22T06:07:42.604Z,102458.79
2018-02-22T06:08:47.093Z,102456.12
2018-02-22T06:09:52.186Z,102456.40
2018-02-22T06:10:56.417Z,102455.09
2018-02-22T06:12:00.653Z,102458.18
2018-02-22T06:13:04.848Z,102459.08
2018-02-22T06:14:09.075Z,102459.36
2018-02-22T06:15:13.429Z,102462.80
2018-02-22T06:16:17.707Z,102467.42
2018-02-22T06:17:21.922Z,102465.16
2018-02-22T06:18:26.118Z,102464.02
2018-02-22T06:19:30.317Z,102462.16
2018-02-22T06:20:34.574Z,102458.79
2018-02-22T06:21:38.795Z,102460.45
2018-02-22T06:22:43.791Z,102465.12
2018-02-22T06:23:47.998Z,102462.28
2018-02-22T06:24:52.223Z,102465.60
2018-02-22T06:25:56.505Z,102468.08
2018-02-22T06:27:00.711Z,102470.02
2018-02-22T06:28:04.939Z,102468.48
2018-02-22T06:29:09.152Z,102470.18
2018-02-22T06:30:13.716Z,102468.84
2018-02-22T06:31:18.015Z,102465.81
2018-02-22T06:32:23.070Z,102468.16
2018-02-22T06:33:27.317Z,102469.58
2018-02-22T06:34:31.673Z,102472.70
2018-02-22T06:35:36.620Z,102474.41
2018-02-22T06:36:40.835Z,102473.52
2018-02-22T06:37:45.406Z,102470.87
2018-02-22T06:38:49.869Z,102468.59
2018-02-22T06:39:54.173Z,102475.98
2018-02-22T06:40:58.416Z,102471.36
2018-02-22T06:42:02.622Z,102473.75
2018-02-22T06:43:06.835Z,102476.27
2018-02-22T06:44:11.062Z,102477.08
2018-02-22T06:45:16.479Z,102476.84
2018-02-22T06:46:20.792Z,102471.08
2018-02-22T06:47:25.179Z,102472.66
2018-02-22T06:48:30.150Z,102476.55
2018-02-22T06:49:34.345Z,102477.85
2018-02-22T06:50:38.574Z,102476.84
2018-02-22T06:51:42.954Z,102474.56
2018-02-22T06:52:47.674Z,102473.95
2018-02-22T06:53:51.975Z,102475.22
2018-02-22T06:54:56.211Z,102474.52
2018-02-22T06:56:00.409Z,102476.35
2018-02-22T06:57:04.609Z,102484.02
2018-02-22T06:58:09.653Z,102481.70
2018-02-22T06:59:14.074Z,102476.55
2018-02-22T07:00:19.108Z,102485.66
2018-02-22T07:01:23.425Z,102485.55
2018-02-22T07:02:27.657Z,102490.25
2018-02-22T07:03:31.899Z,102486.60
2018-02-22T07:04:36.099Z,102477.04
2018-02-22T07:05:40.292Z,102483.84
2018-02-22T07:06:44.975Z,102479.14
2018-02-22T07:07:49.306Z,102486.41
2018-02-22T07:08:53.642Z,102487.53
2018-02-22T07:09:57.859Z,102482.59
2018-02-22T07:11:02.040Z,102482.34
2018-02-22T07:12:06.250Z,102485.14
2018-02-22T07:13:10.473Z,102487.02
2018-02-22T07:14:15.408Z,102484.22
2018-02-22T07:15:19.805Z,102484.66
2018-02-22T07:16:24.213Z,102484.83
2018-02-22T07:17:29.407Z,102486.12
2018-02-22T07:18:33.649Z,102484.26
2018-02-22T07:19:37.861Z,102487.55
2018-02-22T07:20:42.189Z,102485.39
2018-02-22T07:21:47.121Z,102486.61
2018-02-22T07:22:52.037Z,102482.39
2018-02-22T07:23:57.084Z,102487.99
2018-02-22T07:25:01.267Z,102488.16
2018-02-22T07:26:05.497Z,102485.27
2018-02-22T07:27:09.791Z,102487.42
2018-02-22T07:28:14.489Z,102488.39
2018-02-22T07:29:19.052Z,102487.54
2018-02-22T07:30:23.430Z,102489.21
2018-02-22T07:31:27.675Z,102489.09
2018-02-22T07:32:31.921Z,102490.79
2018-02-22T07:33:36.129Z,102489.98
2018-02-22T07:34:40.353Z,102480.36
2018-02-22T07:35:45.267Z,102485.19
2018-02-22T07:36:49.561Z,102487.34
2018-02-22T07:37:53.945Z,102486.85
2018-02-22T07:38:58.154Z,102488.59
2018-02-22T07:40:03.155Z,102491.66
2018-02-22T07:41:07.355Z,102491.75
2018-02-22T07:42:11.574Z,102494.95
2018-02-22T07:43:16.208Z,102497.27
2018-02-22T07:44:21.779Z,102497.80
2018-02-22T07:45:26.364Z,102500.80
2018-02-22T07:46:30.568Z,102498.68
2018-02-22T07:47:34.778Z,102493.77
2018-02-22T07:48:39.016Z,102496.52
2018-02-22T07:49:44.469Z,102497.25
2018-02-22T07:50:49.123Z,102500.53
2018-02-22T07:51:53.509Z,102501.83
2018-02-22T07:52:57.744Z,102498.42
2018-02-22T07:54:01.943Z,102498.02
2018-02-22T07:55:06.175Z,102501.13
2018-02-22T07:56:10.359Z,102501.89
2018-02-22T07:57:15.307Z,102506.30
2018-02-22T07:58:19.766Z,102498.98
2018-02-22T07:59:24.814Z,102503.75
2018-02-22T08:00:29.791Z,102512.72
2018-02-22T08:01:33.980Z,102509.62
2018-02-22T08:02:38.174Z,102517.46
2018-02-22T08:03:42.625Z,102507.80
2018-02-22T08:04:47.517Z,102513.23
2018-02-22T08:05:51.791Z,102515.39
2018-02-22T08:06:56.049Z,102508.80
2018-02-22T08:08:00.245Z,102511.11
2018-02-22T08:09:04.488Z,102513.47
2018-02-22T08:10:08.686Z,102511.70
2018-02-22T08:11:13.470Z,102510.61
2018-02-22T08:12:17.898Z,102514.09
2018-02-22T08:13:22.188Z,102509.13
2018-02-22T08:14:27.333Z,102509.16
2018-02-22T08:15:32.324Z,102512.61
2018-02-22T08:16:36.559Z,102510.69
2018-02-22T08:17:40.790Z,102513.66
2018-02-22T08:18:45.258Z,102509.29
2018-02-22T08:19:51.099Z,102503.91
2018-02-22T08:20:55.528Z,102508.70
2018-02-22T08:21:59.715Z,102513.96
2018-02-22T08:23:03.983Z,102511.11
2018-02-22T08:24:08.980Z,102509.92
2018-02-22T08:25:13.384Z,102509.30
2018-02-22T08:26:18.908Z,102511.11
2018-02-22T08:27:23.366Z,102510.73
2018-02-22T08:28:27.718Z,102507.44
2018-02-22T08:29:31.910Z,102516.85
2018-02-22T08:30:36.855Z,102511.52
2018-02-22T08:31:41.186Z,102511.02
2018-02-22T08:32:45.735Z,102517.61
2018-02-22T08:33:50.831Z,102511.97
2018-02-22T08:34:55.096Z,102515.67
2018-02-22T08:35:59.273Z,102514.27
2018-02-22T08:37:03.530Z,102511.00
2018-02-22T08:38:07.748Z,102515.59
2018-02-22T08:39:13.850Z,102518.92
2018-02-22T08:40:18.358Z,102521.69
2018-02-22T08:41:22.692Z,102516.88
2018-02-22T08:42:26.929Z,102518.13
2018-02-22T08:43:31.253Z,102517.83
2018-02-22T08:44:36.272Z,102516.75
2018-02-22T08:45:41.366Z,102512.55
2018-02-22T08:46:45.990Z,102514.02
2018-02-22T08:47:51.119Z,102511.83
2018-02-22T08:48:55.502Z,102510.61
2018-02-22T08:49:59.748Z,102511.94
2018-02-22T08:51:03.950Z,102500.90
2018-02-22T08:52:08.147Z,102506.25
2018-02-22T08:53:13.408Z,102506.36
2018-02-22T08:54:17.788Z,102513.23
2018-02-22T08:55:22.210Z,102510.70
2018-02-22T08:56:26.440Z,102510.61
2018-02-22T08:57:30.629Z,102511.91
2018-02-22T08:58:34.835Z,102510.78
2018-02-22T08:59:39.030Z,102511.73
2018-02-22T09:00:44.346Z,102506.25
2018-02-22T09:01:48.854Z,102502.95
2018-02-22T09:02:53.221Z,102505.64
2018-02-22T09:03:57.432Z,102504.34
2018-02-22T09:05:01.610Z,102506.59
2018-02-22T09:06:06.560Z,102504.11
2018-02-22T09:07:10.740Z,102513.73
2018-02-22T09:08:15.575Z,102514.28
2018-02-22T09:09:20.004Z,102516.67
2018-02-22T09:10:24.544Z,102509.44
2018-02-22T09:11:28.927Z,102506.74
2018-02-22T09:12:33.955Z,102505.58
2018-02-22T09:13:38.895Z,102507.29
2018-02-22T09:14:44.293Z,102504.19
2018-02-22T09:15:50.386Z,102507.35
2018-02-22T09:16:54.635Z,102503.97
2018-02-22T09:17:58.846Z,102503.83
2018-02-22T09:19:03.035Z,102506.95
2018-02-22T09:20:07.274Z,102507.79
2018-02-22T09:21:11.574Z,102502.61
2018-02-22T09:22:17.407Z,102502.91
2018-02-22T09:23:22.442Z,102504.77
2018-02-22T09:24:26.689Z,102514.91
2018-02-22T09:25:30.918Z,102513.95
2018-02-22T09:26:35.103Z,102507.45
2018-02-22T09:27:39.288Z,102510.52
2018-02-22T09:28:45.661Z,102506.16
2018-02-22T09:29:50.050Z,102504.11
2018-02-22T09:30:54.355Z,102504.40
2018-02-22T09:31:58.547Z,102498.97
2018-02-22T09:33:02.780Z,102498.08
2018-02-22T09:34:07.769Z,102505.00
2018-02-22T09:35:12.283Z,102500.13
2018-02-22T09:36:18.386Z,102497.23
2018-02-22T09:37:22.725Z,102494.89
2018-02-22T09:38:26.915Z,102495.30
2018-02-22T09:39:31.104Z,102495.91
2018-02-22T09:40:36.120Z,102494.23
2018-02-22T09:41:40.329Z,102493.06
2018-02-22T09:42:46.122Z,102494.83
2018-02-22T09:43:51.377Z,102497.51
2018-02-22T09:44:57.153Z,102498.33
2018-02-22T09:46:01.394Z,102495.95
2018-02-22T09:47:05.593Z,102491.91
2018-02-22T09:48:10.555Z,102494.55
2018-02-22T09:49:15.681Z,102492.91
2018-02-22T09:50:20.126Z,102494.50
2018-02-22T09:51:24.895Z,102495.41
2018-02-22T09:52:29.849Z,102495.31
2018-02-22T09:53:34.049Z,102488.43
2018-02-22T09:54:38.230Z,102491.49
2018-02-22T09:55:43.192Z,102499.39
2018-02-22T09:56:48.622Z,102496.45
2018-02-22T09:57:52.885Z,102496.52
2018-02-22T09:58:57.150Z,102497.91
2018-02-22T10:00:02.118Z,102497.55
2018-02-22T10:01:06.343Z,102497.65
2018-02-22T10:02:10.637Z,102503.67
2018-02-22T10:03:15.441Z,102497.88
2018-02-22T10:04:20.964Z,102504.77
2018-02-22T10:05:25.252Z,102505.07
2018-02-22T10:06:30.950Z,102505.95
2018-02-22T10:07:35.206Z,102507.58
2018-02-22T10:08:39.470Z,102508.95
2018-02-22T10:09:44.889Z,102506.66
2018-02-22T10:10:49.641Z,102508.42
2018-02-22T10:11:53.963Z,102502.58
2018-02-22T10:12:58.218Z,102503.08
2018-02-22T10:14:02.424Z,102502.10
2018-02-22T10:15:06.609Z,102509.75
2018-02-22T10:16:10.822Z,102504.78
2018-02-22T10:17:15.672Z,102503.90
2018-02-22T10:18:20.012Z,102496.95
2018-02-22T10:19:24.528Z,102504.46
2018-02-22T10:20:28.748Z,102511.55
2018-02-22T10:21:32.946Z,102512.42
2018-02-22T10:22:37.886Z,102508.40
2018-02-22T10:23:43.247Z,102505.98
2018-02-22T10:24:48.555Z,102504.25
2018-02-22T10:25:52.871Z,102505.80
2018-02-22T10:26:57.116Z,102501.24
2018-02-22T10:28:01.306Z,102499.59
2018-02-22T10:29:05.572Z,102501.67
2018-02-22T10:30:09.764Z,102507.22
2018-02-22T10:31:14.351Z,102505.07
2018-02-22T10:32:18.758Z,102502.70
2018-02-22T10:33:24.037Z,102498.88
2018-02-22T10:34:28.307Z,102502.23
2018-02-22T10:35:32.545Z,102496.20
2018-02-22T10:36:36.727Z,102501.59
2018-02-22T10:37:41.392Z,102504.73
2018-02-22T10:38:47.025Z,102500.59
2018-02-22T10:39:51.396Z,102502.16
2018-02-22T10:40:55.734Z,102496.02
2018-02-22T10:41:59.916Z,102492.39
2018-02-22T10:43:04.876Z,102493.14
2018-02-22T10:44:09.073Z,102493.84
2018-02-22T10:45:15.072Z,102496.86
2018-02-22T10:46:19.463Z,102501.08
2018-02-22T10:47:25.302Z,102498.19
2018-02-22T10:48:29.500Z,102494.86
2018-02-22T10:49:33.719Z,102499.84
2018-02-22T10:50:37.939Z,102500.36
2018-02-22T10:51:42.484Z,102494.45
2018-02-22T10:52:47.732Z,102492.97
2018-02-22T10:53:52.981Z,102493.38
2018-02-22T10:54:57.211Z,102497.80
2018-02-22T10:56:01.526Z,102493.70
2018-02-22T10:57:06.435Z,102487.98
2018-02-22T10:58:11.487Z,102493.92
2018-02-22T10:59:17.258Z,102494.00
2018-02-22T11:02:06.129Z,102483.63
2018-02-22T11:03:10.315Z,102488.98
2018-02-22T11:04:15.069Z,102487.73
2018-02-22T11:05:20.245Z,102483.13
2018-02-22T11:06:24.660Z,102481.13
2018-02-22T11:07:28.895Z,102485.81
2018-02-22T11:08:33.084Z,102480.83
2018-02-22T11:09:38.074Z,102481.80
2018-02-22T11:10:42.452Z,102480.61
2018-02-22T11:11:47.478Z,102478.72
2018-02-22T11:12:51.823Z,102484.25
2018-02-22T11:13:56.068Z,102488.88
2018-02-22T11:15:00.267Z,102488.56
2018-02-22T11:16:04.478Z,102493.94
2018-02-22T11:17:08.740Z,102493.42
2018-02-22T11:18:13.152Z,102499.66
2018-02-22T11:19:18.537Z,102498.08
2018-02-22T11:20:22.791Z,102498.30
2018-02-22T11:21:27.014Z,102493.33
2018-02-22T11:22:31.201Z,102493.31
2018-02-22T11:23:36.206Z,102495.45
2018-02-22T11:24:40.392Z,102491.37
2018-02-22T11:25:44.879Z,102482.97
2018-02-22T11:26:49.215Z,102489.90
2018-02-22T11:27:53.456Z,102492.36
2018-02-22T11:28:58.488Z,102487.10
2018-02-22T11:30:02.727Z,102492.32
2018-02-22T11:31:07.696Z,102490.13
2018-02-22T11:32:13.188Z,102489.77
2018-02-22T11:33:18.867Z,102485.91
2018-02-22T11:34:23.673Z,102484.77
2018-02-22T11:35:27.898Z,102487.00
2018-02-22T11:36:32.071Z,102487.00
2018-02-22T11:37:36.245Z,102486.20
2018-02-22T11:38:40.421Z,102491.11
2018-02-22T11:39:45.470Z,102486.67
2018-02-22T11:40:49.816Z,102483.02
2018-02-22T11:41:54.432Z,102479.69
2018-02-22T11:43:00.153Z,102476.22
2018-02-22T11:44:04.403Z,102473.48
2018-02-22T11:45:08.634Z,102475.95
2018-02-22T11:46:14.317Z,102478.23
2018-02-22T11:47:19.876Z,102468.23
2018-02-22T11:48:24.139Z,102479.58
2018-02-22T11:49:29.120Z,102474.15
2018-02-22T11:50:33.358Z,102475.47
2018-02-22T11:51:37.545Z,102473.89
2018-02-22T11:52:42.242Z,102469.88
2018-02-22T11:53:46.714Z,102467.27
2018-02-22T11:54:51.729Z,102468.26
2018-02-22T11:55:56.098Z,102474.09
2018-02-22T11:57:00.289Z,102471.84
2018-02-22T11:58:05.236Z,102469.28
2018-02-22T11:59:09.435Z,102468.64
2018-02-22T12:00:14.717Z,102469.29
2018-02-22T12:01:19.817Z,102466.45
2018-02-22T12:02:24.127Z,102464.64
2018-02-22T12:03:28.326Z,102467.39
2018-02-22T12:04:32.530Z,102467.77
2018-02-22T12:05:38.169Z,102468.31
2018-02-22T12:06:43.047Z,102464.13
2018-02-22T12:07:48.207Z,102465.28
2018-02-22T12:08:52.582Z,102466.22
2018-02-22T12:09:56.799Z,102453.44
2018-02-22T12:11:00.995Z,102465.11
2018-02-22T12:12:05.244Z,102463.13
2018-02-22T12:13:09.431Z,102459.84
2018-02-22T12:14:14.436Z,102463.23
2018-02-22T12:15:19.434Z,102470.11
2018-02-22T12:16:23.696Z,102463.02
2018-02-22T12:17:27.962Z,102458.51
2018-02-22T12:18:32.150Z,102454.78
2018-02-22T12:19:36.360Z,102451.27